Nearby METAR Reports

 

KIAD - Wash Dc/Dulles, Virginia, USA
Distance from station: ESE 7mi, 11km
Updated: Fri, 14-Aug-2020 5:52am EDT
Overcast
Overcast
 Wind from NNE
Wind: NNE 7 mph , 11 km/h
Temperature: 73°F , 23°C
Dew Point: 72°F , 22°C
Humidity: 94%
Barometer: 29.99 inHg , 1015.6 hPa
Clouds: Overcast
Visibility: 10 miles , 16 km
Cloud details: Overcast 800 ft
2020/08/14 09:52 KIAD 140952Z 02006KT 10SM OVC008 23/22 A2999 RMK AO2 SLP153 T02330217
KJYO - Leesburg/Godfrey, Virginia, USA
Distance from station: N 7mi, 12km
Updated: Fri, 14-Aug-2020 6:15am EDT
Overcast
Overcast
 Wind from NE
Wind: NE 3 mph , 6 km/h
Temperature: 66°F , 19°C
Dew Point: 66°F , 19°C
Humidity: 100%
Barometer: 30.02 inHg , 1016.6 hPa
Clouds: Overcast
Visibility: 7 miles , 11 km
Cloud details: Overcast 700 ft
2020/08/14 10:15 KJYO 141015Z AUTO 04003KT 7SM OVC007 19/19 A3002 RMK AO2
 
KHEF - Manassas Muni, Virginia, USA
Distance from station: S 17mi, 28km
Updated: Fri, 14-Aug-2020 5:56am EDT
Overcast
Overcast
 Wind from N
Wind: N 7 mph , 11 km/h
Temperature: 73°F , 23°C
Dew Point: 72°F , 22°C
Humidity: 94%
Barometer: 29.99 inHg , 1015.6 hPa
Clouds: Overcast
Visibility: 10 miles , 16 km
Cloud details: Overcast 800 ft
2020/08/14 09:56 KHEF 140956Z AUTO 36006KT 10SM OVC008 23/22 A2999 RMK AO2 SLP159 T02330222 PNO $
KGAI - Gaithersburg, Maryland, USA
Distance from station: NE 26mi, 41km
Updated: Fri, 14-Aug-2020 5:56am EDT
Overcast
Overcast
 Wind from varies
Wind: varies 5 mph , 7 km/h
Temperature: 72°F , 22°C
Dew Point: 70°F , 21°C
Humidity: 94%
Barometer: 30.01 inHg , 1016.3 hPa
Clouds: Overcast
Visibility: 7 miles , 11 km
Cloud details: Few Clouds 600 ft
Partly cloudy 5000 ft
Overcast 6500 ft
2020/08/14 09:56 KGAI 140956Z AUTO VRB04KT 7SM FEW006 SCT050 OVC065 22/21 A3001 RMK AO2 SLP172 T02220211
 
KDAA - Fort Belvoir/Dav, Virginia, USA
Distance from station: SE 27mi, 44km
Updated: Fri, 14-Aug-2020 5:56am EDT
Overcast
Overcast
 Wind from N
Wind: N 3 mph , 6 km/h
Temperature: 75°F , 24°C
Dew Point: 73°F , 23°C
Humidity: 94%
Barometer: 29.97 inHg , 1014.9 hPa
Clouds: Overcast
Visibility: 10 miles , 16 km
Cloud details: Overcast 1000 ft
2020/08/14 09:56 KDAA 140956Z AUTO 01003KT 10SM OVC010 24/23 A2997 RMK AO2 DZB17E27 SLP151 P0000 T02440226 $
KHWY - Warrenton, Virginia, USA
Distance from station: SSW 27mi, 44km
Updated: Fri, 14-Aug-2020 5:55am EDT
Overcast
Overcast
 Wind from NNE
Wind: NNE 7 mph , 11 km/h
Temperature: 73°F , 23°C
Dew Point: 72°F , 22°C
Humidity: 94%
Barometer: 29.99 inHg , 1015.6 hPa
Clouds: Overcast
Visibility: 10 miles , 16 km
Cloud details: Overcast 700 ft
2020/08/14 09:55 KHWY 140955Z AUTO 02006KT 10SM OVC007 23/22 A2999 RMK AO2 T02340219
 
KDCA - Washington/Natl, Washington D.c., USA
Distance from station: ESE 30mi, 48km
Updated: Fri, 14-Aug-2020 5:52am EDT
Overcast
Overcast
 Wind from NE
Wind: NE 9 mph , 15 km/h
Temperature: 75°F , 24°C
Dew Point: 73°F , 23°C
Humidity: 94%
Barometer: 29.98 inHg , 1015.2 hPa
Clouds: Overcast
Visibility: 10 miles , 16 km
Cloud details: Mostly cloudy 1000 ft
Overcast 1600 ft
2020/08/14 09:52 KDCA 140952Z 04008KT 10SM BKN010 OVC016 24/23 A2998 RMK AO2 SLP152 T02440228
KFDK - Frederick, Maryland, USA
Distance from station: NNE 33mi, 53km
Updated: Fri, 14-Aug-2020 6:15am EDT
Mist, Mostly cloudy
Mist, Mostly cloudy
 Wind from N
Wind: N 6 mph , 9 km/h
Temperature: 72°F , 22°C
Dew Point: 70°F , 21°C
Humidity: 94%
Barometer: 30.02 inHg , 1016.6 hPa
Summary: Mist
Clouds: Mostly cloudy
Visibility: 4 miles , 6 km
Cloud details: Mostly cloudy 3300 ft
2020/08/14 10:15 KFDK 141015Z AUTO 01005KT 4SM BR BKN033 22/21 A3002 RMK AO2
 
KOKV - Winchester Rgnl, Virginia, USA
Distance from station: WNW 33mi, 54km
Updated: Fri, 14-Aug-2020 5:55am EDT
Mostly cloudy
Mostly cloudy
 Wind from calm
Wind: Calm
Temperature: 68°F , 20°C
Dew Point: 68°F , 20°C
Humidity: 100%
Barometer: 30.01 inHg , 1016.3 hPa
Clouds: Mostly cloudy
Visibility: 7 miles , 11 km
Cloud details: Partly cloudy 1100 ft
Mostly cloudy 2200 ft
Mostly cloudy 3700 ft
2020/08/14 09:55 KOKV 140955Z AUTO 00000KT 7SM SCT011 BKN022 BKN037 20/20 A3001 RMK AO2
KCJR - Culpeper, Virginia, USA
Distance from station: SSW 34mi, 54km
Updated: Fri, 14-Aug-2020 5:55am EDT
Mist, Overcast
Mist, Overcast
 Wind from calm
Wind: Calm
Temperature: 73°F , 23°C
Dew Point: 72°F , 22°C
Humidity: 94%
Barometer: 30.01 inHg , 1016.3 hPa
Summary: Mist
Clouds: Overcast
Visibility: 5 miles , 8 km
Cloud details: Mostly cloudy 1000 ft
Overcast 1900 ft
2020/08/14 09:55 KCJR 140955Z AUTO 00000KT 5SM BR BKN010 OVC019 23/22 A3001 RMK AO2 T02250217
 
KCGS - College Park, Maryland, USA
Distance from station: E 35mi, 56km
Updated: Fri, 14-Aug-2020 5:55am EDT
Overcast
Overcast
 Wind from N
Wind: N 5 mph , 7 km/h
Temperature: 73°F , 23°C
Dew Point: 70°F , 21°C
Humidity: 89%
Barometer: 29.98 inHg , 1015.2 hPa
Clouds: Overcast
Visibility: 10 miles , 16 km
Cloud details: Overcast 900 ft
2020/08/14 09:55 KCGS 140955Z AUTO 01004KT 10SM OVC009 23/21 A2998 RMK AO1 T02300205
KNYG - Quantico Mcaf, Virginia, USA
Distance from station: SSE 35mi, 57km
Updated: Fri, 14-Aug-2020 5:56am EDT
Light rain, Overcast
Light rain, Overcast
 Wind from NNW
Wind: NNW 9 mph , 15 km/h
Temperature: 75°F , 24°C
Dew Point: 72°F , 22°C
Humidity: 89%
Barometer: 29.97 inHg , 1014.9 hPa
Summary: Light rain
Clouds: Overcast
Visibility: 7 miles , 11 km
Cloud details: Mostly cloudy 1200 ft
Overcast 2300 ft
2020/08/14 09:56 KNYG 140956Z AUTO 34008KT 7SM -RA BKN012 OVC023 24/22 A2997 RMK AO2 RAB47 SLP151 P0000 T02440222
 
KFRR - Fort Royal, Virginia, USA
Distance from station: W 37mi, 59km
Updated: Fri, 14-Aug-2020 5:55am EDT
Overcast
Overcast
 Wind from calm
Wind: Calm
Barometer: 30.02 inHg , 1016.6 hPa
Clouds: Overcast
Visibility: 7 miles , 11 km
Cloud details: Overcast 1000 ft
2020/08/14 09:55 KFRR 140955Z AUTO 00000KT 7SM OVC010 A3002 RMK AO1
KMRB - Martinsburg, West Virginia, USA
Distance from station: NW 38mi, 61km
Updated: Fri, 14-Aug-2020 5:53am EDT
Clear
Clear
 Wind from N
Wind: N 6 mph , 9 km/h
Temperature: 72°F , 22°C
Dew Point: 70°F , 21°C
Humidity: 94%
Barometer: 30.01 inHg , 1016.3 hPa
Clouds: Clear
Visibility: 7 miles , 11 km
2020/08/14 09:53 KMRB 140953Z AUTO 36005KT 7SM CLR 22/21 A3001 RMK AO2 SLP158 T02170206
 
KADW - Andrews Afb, Maryland, USA
Distance from station: ESE 39mi, 63km
Updated: Fri, 14-Aug-2020 5:56am EDT
Mostly cloudy
Mostly cloudy
 Wind from NNE
Wind: NNE 9 mph , 15 km/h
Temperature: 73°F , 23°C
Dew Point: 73°F , 23°C
Humidity: 100%
Barometer: 29.97 inHg , 1014.9 hPa
Clouds: Mostly cloudy
Visibility: 10 miles , 16 km
Cloud details: Mostly cloudy 700 ft
Mostly cloudy 1300 ft
Mostly cloudy 2000 ft
2020/08/14 09:56 KADW 140956Z AUTO 03008KT 10SM BKN007 BKN013 BKN020 23/23 A2997 RMK AO2 BKN007 V SCT CIG 006 RWY19L SLP153 T02330229 $
KRMN - Stafford Regnl, Virginia, USA
Distance from station: S 39mi, 63km
Updated: Fri, 14-Aug-2020 5:55am EDT
Overcast
Overcast
 Wind from calm
Wind: Calm
Temperature: 75°F , 24°C
Dew Point: 75°F , 24°C
Humidity: 100%
Barometer: 30.01 inHg , 1016.3 hPa
Clouds: Overcast
Visibility: 10 miles , 16 km
Cloud details: Overcast 800 ft
2020/08/14 09:55 KRMN 140955Z AUTO 00000KT 10SM OVC008 24/24 A3001 RMK AO2 T02350235
 
KFME - Fort Meade, Maryland, USA
Distance from station: ENE 44mi, 70km
Updated: Fri, 14-Aug-2020 5:55am EDT
Mostly cloudy
Mostly cloudy
 Wind from NNE
Wind: NNE 3 mph , 6 km/h
Temperature: 72°F , 22°C
Dew Point: 70°F , 21°C
Humidity: 94%
Barometer: 30.01 inHg , 1016.3 hPa
Clouds: Mostly cloudy
Visibility: 7 miles , 11 km
Cloud details: Partly cloudy 1400 ft
Mostly cloudy 10000 ft
2020/08/14 09:55 KFME 140955Z AUTO 03003KT 7SM SCT014 BKN100 22/21 A3001 RMK AO1
KRSP - Nsf Thurmont, Maryland, USA
Distance from station: N 48mi, 77km
Updated: Wed, 12-Aug-2020 9:54am EDT
NOT Current
Clear
Clear
 Wind from varies
Wind: varies 5 mph , 7 km/h
Temperature: 79°F , 26°C
Dew Point: 66°F , 19°C
Humidity: 65%
Barometer: 30.12 inHg , 1020 hPa
Clouds: Clear
Visibility: 10 miles , 16 km
2020/08/12 13:54 KRSP 121354Z AUTO VRB04KT 10SM CLR 26/19 A3012 RMK AO2 SLP187 T02560189 $
 
KEZF - Fredericksb/Shan, Virginia, USA
Distance from station: S 48mi, 78km
Updated: Fri, 14-Aug-2020 5:55am EDT
Overcast
Overcast
 Wind from N
Wind: N 5 mph , 7 km/h
Temperature: 75°F , 24°C
Dew Point: 75°F , 24°C
Humidity: 100%
Barometer: 29.96 inHg , 1014.6 hPa
Clouds: Overcast
Visibility: 10 miles , 16 km
Cloud details: Overcast 800 ft
2020/08/14 09:55 KEZF 140955Z AUTO 35004KT 10SM OVC008 24/24 A2996 RMK AO2 T02350235
KBWI - Balto/Wash Intl, Maryland, USA
Distance from station: ENE 49mi, 80km
Updated: Fri, 14-Aug-2020 5:54am EDT
Mostly cloudy
Mostly cloudy
 Wind from NNE
Wind: NNE 6 mph , 9 km/h
Temperature: 75°F , 24°C
Dew Point: 72°F , 22°C
Humidity: 89%
Barometer: 29.98 inHg , 1015.2 hPa
Clouds: Mostly cloudy
Visibility: 9 miles , 14 km
Cloud details: Partly cloudy 1500 ft
Mostly cloudy 2900 ft
Mostly cloudy 11000 ft
2020/08/14 09:54 KBWI 140954Z 02005KT 9SM SCT015 BKN029 BKN110 24/22 A2998 RMK AO2 SLP151 T02390217